San Francisco, CA

2:46 AM PDT on March 25, 2017 (GMT -0700)
Potrero Hill | | Change Station

Elev 22 ft 37.76 °N, 122.40 °W | Updated 2 minutes ago

Mostly Cloudy
Mostly Cloudy
54.1 °F
Feels Like 54.1 °F
N
0.6
Wind Variable Wind from NE
Gusts 1.9 mph

Today
High -- | Low -- °F
--% Chance of Precip.
Yesterday
High -- | Low -- °F
Precip. -- in
Pressure 30.17 in
Visibility 7.0 miles
Clouds Scattered Clouds 800 ft
Mostly Cloudy 1400 ft
Overcast 2200 ft
Dew Point 53 °F
Humidity 95%
Rainfall 0.00 in
Snow Depth Not available.
7:04 AM 7:26 PM
Waning Crescent, 9% visible
METAR KOAK 250853Z 34003KT 7SM -RA SCT008 BKN014 OVC022 13/13 A3016 RMK AO2 RAB53 SLP214 P0000 60000 T01330128 58005
Pressure 30.17 in
Visibility 7.0 miles
Clouds Scattered Clouds 800 ft
Mostly Cloudy 1400 ft
Overcast 2200 ft
Dew Point 53 °F
Humidity 95%
Rainfall 0.00 in
Snow Depth Not available.
7:04 AM 7:26 PM
Waning Crescent, 9% visible
METAR KOAK 250853Z 34003KT 7SM -RA SCT008 BKN014 OVC022 13/13 A3016 RMK AO2 RAB53 SLP214 P0000 60000 T01330128 58005

Get Severe Weather Alerts

Thanks for signing up!

Be on the lookout for a verification email in your inbox.

You'll start receiving the daily forecast at 8 AM.

×

10-Day Weather Forecast

Almanac

Astronomy

Mar. 25, 2017 Rise Set
Actual Time
Civil Twilight
Nautical Twilight
Astronomical Twilight
Moon
Length of Visible Light
Length of Day
Tomorrow will be .
, % of the Moon is Illuminated

Today's Extremes

State Highs State Lows

Community

WunderPhotos

Upload Photos

1,962,540 photos uploaded!

WunderBlog® & News

Nearby

Air Quality

  Air Quality AQ Index Pollutant
Not available.

Snow Depth

Station Depth Elevation

Earthquake Activity

City Distance Mag. Time & Date
Minimum magnitude displayed is 2.5.

Earthquake Activity

City Distance Mag. Time & Date
Minimum magnitude displayed is 2.5.

Coastal Water Temperatures

Place Temperature

Stations

Nearby Weather Stations

Station Location Temp. Windchill Dew Point Humidity Wind Precip. Elev Updated Type
                   

Watches & Warnings

There are currently no watches in effect.